Time;durP1;ratioP1;P1;durP2;ratioP2;P2;SDS_P1;SDS_P2;PMS_P1;PMS_P2;Temp;Humidity;BMP_temperature;BMP_pressure;BME280_temperature;BME280_humidity;BME280_pressure;Samples;Min_cycle;Max_cycle;Signal;HPM_P1;HPM_P2
2022/05/14 00:01:21;;;;;;;12.98;3.35;;;13.30;99.90;;;;;;5115262;27;20129;-74
2022/05/14 00:03:47;;;;;;;13.95;3.00;;;13.30;99.90;;;;;;5114637;27;20043;-73
2022/05/14 00:06:19;;;;;;;15.15;3.05;;;13.70;99.90;;;;;;5098071;27;20129;-74
2022/05/14 00:08:46;;;;;;;14.07;2.77;;;13.30;99.90;;;;;;5114328;27;20066;-75
2022/05/14 00:13:57;;;;;;;14.80;4.75;;;13.20;99.90;;;;;;5114772;27;20066;-75
2022/05/14 00:16:25;;;;;;;12.43;3.70;;;13.20;99.90;;;;;;5114190;27;20046;-75
2022/05/14 00:18:54;;;;;;;14.93;2.67;;;13.20;99.90;;;;;;5114977;27;20035;-75
2022/05/14 00:21:21;;;;;;;12.30;2.70;;;13.20;99.90;;;;;;5097206;27;20088;-75
2022/05/14 00:23:47;;;;;;;15.40;3.17;;;13.20;99.90;;;;;;5097556;27;20043;-75
2022/05/14 00:26:14;;;;;;;9.95;2.40;;;13.10;99.90;;;;;;5113982;27;20084;-75
2022/05/14 00:28:40;;;;;;;10.77;3.17;;;13.10;99.90;;;;;;5110277;27;20035;-75
2022/05/14 00:31:06;;;;;;;15.80;3.03;;;13.00;99.90;;;;;;5111339;27;20482;-75
2022/05/14 00:33:32;;;;;;;12.95;3.00;;;13.00;99.90;;;;;;5077352;27;20088;-75
2022/05/14 00:35:58;;;;;;;10.88;2.72;;;13.00;99.90;;;;;;5094678;27;20046;-75
2022/05/14 00:38:24;;;;;;;22.95;3.60;;;13.00;99.90;;;;;;5093993;27;20389;-75
2022/05/14 00:40:58;;;;;;;11.65;2.88;;;13.10;99.90;;;;;;5111113;27;20043;-75
2022/05/14 00:43:25;;;;;;;20.65;3.33;;;13.00;99.90;;;;;;5110829;27;20122;-75
2022/05/14 00:46:01;;;;;;;9.27;2.30;;;12.90;99.90;;;;;;5110944;27;20043;-75
2022/05/14 00:48:36;;;;;;;12.82;3.20;;;13.00;99.90;;;;;;5111557;27;20058;-75
2022/05/14 00:51:02;;;;;;;17.08;3.15;;;12.90;99.90;;;;;;5110914;27;20047;-76
2022/05/14 00:53:35;;;;;;;18.88;2.83;;;12.90;99.90;;;;;;5094291;27;20441;-75
2022/05/14 00:56:08;;;;;;;;;;;12.90;99.90;;;;;;5094361;27;20049;-76
2022/05/14 00:58:52;;;;;;;19.30;2.97;;;12.90;99.90;;;;;;5110666;27;20426;-76
2022/05/14 01:01:18;;;;;;;15.18;3.85;;;12.90;99.90;;;;;;5094423;27;20062;-75
2022/05/14 01:03:44;;;;;;;21.45;3.25;;;12.90;99.90;;;;;;5110638;27;20126;-75
2022/05/14 01:06:14;;;;;;;13.35;3.03;;;12.90;99.90;;;;;;5110618;27;20047;-75
2022/05/14 01:08:42;;;;;;;17.63;3.60;;;12.80;99.90;;;;;;5093174;27;20042;-75
2022/05/14 01:11:08;;;;;;;25.23;3.50;;;12.90;99.90;;;;;;5093698;27;20051;-75
2022/05/14 01:13:33;;;;;;;13.80;3.30;;;12.80;99.90;;;;;;5110353;27;20096;-75
2022/05/14 01:16:02;;;;;;;14.95;3.65;;;12.90;99.90;;;;;;5109991;27;20043;-75
2022/05/14 01:18:32;;;;;;;15.73;3.63;;;12.90;99.90;;;;;;5110929;27;20043;-75
2022/05/14 01:21:13;;;;;;;19.30;3.50;;;12.80;99.90;;;;;;5110075;27;20053;-75
2022/05/14 01:26:35;;;;;;;11.18;2.67;;;12.80;99.90;;;;;;5110392;27;20082;-75
2022/05/14 01:29:15;;;;;;;15.57;3.35;;;12.70;99.90;;;;;;5093303;27;20070;-75
2022/05/14 01:31:41;;;;;;;15.65;3.25;;;12.70;99.90;;;;;;5110065;27;20055;-75
2022/05/14 01:34:13;;;;;;;18.63;4.05;;;12.70;99.90;;;;;;5092505;27;20080;-75
2022/05/14 01:36:40;;;;;;;13.60;4.20;;;12.70;99.90;;;;;;5093509;27;20440;-75
2022/05/14 01:39:07;;;;;;;21.92;4.20;;;12.70;99.90;;;;;;5108650;27;20498;-75
2022/05/14 01:41:33;;;;;;;13.07;3.50;;;12.70;99.90;;;;;;5110317;27;20092;-75
2022/05/14 01:43:58;;;;;;;19.10;4.68;;;12.70;99.90;;;;;;5110048;27;20444;-75
2022/05/14 01:46:24;;;;;;;23.52;4.97;;;12.70;99.90;;;;;;5092731;27;20087;-75
2022/05/14 01:48:50;;;;;;;23.85;4.03;;;12.70;99.90;;;;;;5109514;27;20154;-75
2022/05/14 01:51:17;;;;;;;18.35;4.60;;;12.70;99.90;;;;;;5092115;27;20494;-75
2022/05/14 01:53:43;;;;;;;19.17;3.78;;;12.70;99.90;;;;;;5109446;27;20498;-75
2022/05/14 01:56:09;;;;;;;14.70;3.88;;;12.70;99.90;;;;;;5128212;27;20168;-75
2022/05/14 01:58:38;;;;;;;13.80;3.97;;;12.70;99.90;;;;;;5128160;27;20068;-75
2022/05/14 02:01:15;;;;;;;20.83;4.72;;;13.10;99.90;;;;;;5109707;27;20047;-75
2022/05/14 02:03:46;;;;;;;17.02;3.97;;;12.60;99.90;;;;;;5109275;27;20051;-75
2022/05/14 02:06:13;;;;;;;14.68;4.10;;;12.70;99.90;;;;;;5109904;27;20047;-75
2022/05/14 02:08:39;;;;;;;23.70;4.50;;;12.60;99.90;;;;;;5127592;27;20047;-75
2022/05/14 02:11:05;;;;;;;20.55;4.60;;;12.60;99.90;;;;;;5109563;27;20122;-75
2022/05/14 02:13:31;;;;;;;17.15;4.38;;;12.70;99.90;;;;;;5109655;27;20174;-74
2022/05/14 02:15:57;;;;;;;23.38;5.47;;;12.40;99.90;;;;;;5127466;27;20062;-75
2022/05/14 02:18:23;;;;;;;26.63;5.50;;;12.40;99.90;;;;;;5109318;27;20515;-75
2022/05/14 02:20:49;;;;;;;24.50;4.70;;;12.40;99.90;;;;;;5109447;27;20591;-75
2022/05/14 02:23:15;;;;;;;21.10;4.28;;;12.30;99.90;;;;;;5109130;27;20494;-75
2022/05/14 02:25:41;;;;;;;18.70;5.13;;;12.30;99.90;;;;;;5108766;27;20039;-75
2022/05/14 02:28:07;;;;;;;28.33;5.03;;;13.00;99.90;;;;;;5109219;27;20043;-75
2022/05/14 02:30:33;;;;;;;21.63;5.03;;;12.20;99.90;;;;;;5109011;27;20054;-75
2022/05/14 02:32:59;;;;;;;20.20;4.22;;;12.90;99.90;;;;;;5108708;27;20039;-75
2022/05/14 02:35:25;;;;;;;24.27;4.55;;;12.20;99.90;;;;;;5108978;27;20129;-75
2022/05/14 02:37:51;;;;;;;20.23;4.60;;;12.20;99.90;;;;;;5108525;27;20039;-75
2022/05/14 02:40:17;;;;;;;25.33;5.38;;;12.20;99.90;;;;;;5108629;27;20043;-75
2022/05/14 02:42:43;;;;;;;33.15;4.78;;;12.10;99.90;;;;;;5108223;27;20521;-75
2022/05/14 02:45:09;;;;;;;27.90;5.45;;;12.70;99.90;;;;;;5109047;27;20055;-75
2022/05/14 02:47:35;;;;;;;17.50;4.55;;;12.10;99.90;;;;;;5108987;27;20482;-75
2022/05/14 02:50:02;;;;;;;28.52;6.78;;;12.10;99.90;;;;;;5091121;27;20042;-75
2022/05/14 02:52:27;;;;;;;26.25;5.05;;;12.00;99.90;;;;;;5108740;27;20516;-75
2022/05/14 02:54:53;;;;;;;27.77;5.72;;;12.00;99.90;;;;;;5108315;27;20043;-75
2022/05/14 02:57:19;;;;;;;21.25;5.40;;;12.00;99.90;;;;;;5108508;27;20039;-75
2022/05/14 02:59:45;;;;;;;26.85;6.13;;;12.00;99.90;;;;;;5108604;27;20375;-75
2022/05/14 03:02:10;;;;;;;32.00;5.20;;;11.90;99.90;;;;;;5108836;27;20092;-75
2022/05/14 03:04:39;;;;;;;21.52;4.63;;;11.90;99.90;;;;;;5091723;27;20039;-75
2022/05/14 03:07:07;;;;;;;19.33;5.00;;;11.90;99.90;;;;;;5108360;27;20044;-75
2022/05/14 03:09:35;;;;;;;22.30;4.47;;;11.90;99.90;;;;;;5091939;28;20076;-75
2022/05/14 03:12:01;;;;;;;24.65;5.88;;;12.20;99.90;;;;;;5108821;28;20662;-75
2022/05/14 03:14:26;;;;;;;30.55;5.68;;;11.80;99.90;;;;;;5108706;28;20126;-75
2022/05/14 03:16:53;;;;;;;16.70;4.85;;;11.80;99.90;;;;;;5107732;28;20086;-75
2022/05/14 03:19:19;;;;;;;24.83;5.57;;;12.00;99.90;;;;;;5108070;28;20126;-75
2022/05/14 03:21:45;;;;;;;25.52;5.75;;;11.80;99.90;;;;;;5108848;28;20442;-75
2022/05/14 03:24:11;;;;;;;18.83;5.22;;;11.70;99.90;;;;;;5091624;28;20201;-75
2022/05/14 03:26:41;;;;;;;28.55;6.07;;;11.70;99.90;;;;;;5108322;28;20099;-75
2022/05/14 03:29:07;;;;;;;27.67;5.85;;;11.70;99.90;;;;;;5107960;28;20114;-75
2022/05/14 03:31:33;;;;;;;30.33;6.80;;;11.70;99.90;;;;;;5108757;28;20818;-75
2022/05/14 03:33:59;;;;;;;32.63;6.00;;;11.60;99.90;;;;;;5107938;28;20051;-75
2022/05/14 03:36:25;;;;;;;25.25;5.57;;;11.60;99.90;;;;;;5108059;28;20039;-75
2022/05/14 03:38:52;;;;;;;28.30;5.72;;;11.60;99.90;;;;;;5108278;28;20047;-75
2022/05/14 03:41:18;;;;;;;28.00;5.40;;;11.70;99.90;;;;;;5107760;28;20540;-75
2022/05/14 03:43:44;;;;;;;22.08;5.57;;;11.50;99.90;;;;;;5091806;28;20039;-75
2022/05/14 03:46:10;;;;;;;33.05;5.80;;;11.50;99.90;;;;;;5108168;28;20055;-75
2022/05/14 03:48:36;;;;;;;23.65;5.35;;;11.60;99.90;;;;;;5074475;28;20050;-75
2022/05/14 03:51:03;;;;;;;29.52;6.18;;;11.50;99.90;;;;;;5107581;28;20172;-75
2022/05/14 03:53:29;;;;;;;33.53;6.43;;;11.50;99.90;;;;;;5107827;28;20128;-76
2022/05/14 03:55:55;;;;;;;21.48;6.22;;;11.60;99.90;;;;;;5074996;28;20080;-75
2022/05/14 03:58:21;;;;;;;18.95;4.75;;;11.50;99.90;;;;;;5107849;28;20433;-75
2022/05/14 04:00:47;;;;;;;34.95;6.85;;;11.50;99.90;;;;;;5074122;28;20039;-75
2022/05/14 04:03:13;;;;;;;24.85;5.68;;;11.60;99.90;;;;;;5092882;27;20050;-75
2022/05/14 04:05:39;;;;;;;26.33;5.38;;;11.50;99.90;;;;;;5077972;27;20494;-75
2022/05/14 04:08:06;;;;;;;26.52;5.57;;;11.50;99.90;;;;;;5111205;27;20095;-74
2022/05/14 04:10:32;;;;;;;26.90;5.00;;;11.50;99.90;;;;;;5130335;27;20043;-75
2022/05/14 04:12:59;;;;;;;21.27;5.10;;;11.60;99.90;;;;;;5130531;27;20039;-75
2022/05/14 04:15:25;;;;;;;28.55;6.22;;;11.50;99.90;;;;;;5129707;27;20084;-75
2022/05/14 04:17:52;;;;;;;23.45;5.38;;;11.50;99.90;;;;;;5130067;27;20047;-76
2022/05/14 04:20:18;;;;;;;26.98;5.75;;;11.50;99.90;;;;;;5111403;27;20627;-76
2022/05/14 04:22:44;;;;;;;24.25;6.07;;;11.50;99.90;;;;;;5130147;27;20497;-76
2022/05/14 04:25:11;;;;;;;25.10;5.65;;;11.50;99.90;;;;;;5110505;27;20404;-76
2022/05/14 04:27:37;;;;;;;28.83;5.80;;;11.60;99.90;;;;;;5129416;27;20043;-73
2022/05/14 04:30:04;;;;;;;31.67;5.65;;;12.10;99.90;;;;;;5111069;27;20047;-74
2022/05/14 04:32:29;;;;;;;32.88;6.13;;;11.60;99.90;;;;;;5110368;27;20051;-74
2022/05/14 04:34:56;;;;;;;28.20;5.97;;;11.60;99.90;;;;;;5094276;27;20043;-74
2022/05/14 04:37:22;;;;;;;25.35;5.15;;;11.70;99.90;;;;;;5093965;27;20039;-74
2022/05/14 04:39:49;;;;;;;16.98;5.35;;;11.70;99.90;;;;;;5094114;27;20043;-74
2022/05/14 04:42:15;;;;;;;21.88;4.85;;;12.30;99.90;;;;;;5129814;27;20386;-74
2022/05/14 04:44:41;;;;;;;29.27;5.30;;;11.80;99.90;;;;;;5111482;27;20035;-75
2022/05/14 04:47:08;;;;;;;28.73;4.50;;;11.80;99.90;;;;;;5111039;27;20054;-74
2022/05/14 04:49:45;;;;;;;27.75;5.07;;;11.90;99.90;;;;;;5110667;27;20040;-74
2022/05/14 04:52:12;;;;;;;21.65;5.57;;;11.90;99.90;;;;;;5111334;27;20039;-74
2022/05/14 04:54:37;;;;;;;26.95;5.00;;;12.40;99.90;;;;;;5128797;27;20043;-74
2022/05/14 04:57:04;;;;;;;27.73;5.20;;;12.00;99.90;;;;;;5110802;27;20046;-74
2022/05/14 04:59:30;;;;;;;18.13;4.47;;;12.10;99.90;;;;;;5128994;27;20050;-74
2022/05/14 05:04:41;;;;;;;20.35;5.72;;;12.20;99.90;;;;;;5096734;27;20513;-75
2022/05/14 05:07:07;;;;;;;24.45;4.85;;;12.20;99.90;;;;;;5110195;27;20047;-74
2022/05/14 05:09:33;;;;;;;20.35;4.82;;;12.30;99.90;;;;;;5094291;27;20062;-74
2022/05/14 05:11:59;;;;;;;23.52;5.13;;;12.40;99.90;;;;;;5093054;27;20482;-75
2022/05/14 05:14:25;;;;;;;25.70;4.75;;;12.50;99.90;;;;;;5093027;27;20079;-75
2022/05/14 05:16:51;;;;;;;18.88;4.40;;;12.50;99.90;;;;;;5073210;28;20036;-75
2022/05/14 05:19:18;;;;;;;32.72;5.65;;;12.60;99.90;;;;;;5106657;28;20048;-75
2022/05/14 05:21:44;;;;;;;15.93;4.65;;;12.80;99.90;;;;;;5107209;28;20040;-75
2022/05/14 05:24:10;;;;;;;23.08;4.85;;;13.10;99.90;;;;;;5072767;28;20042;-75
2022/05/14 05:26:36;;;;;;;16.02;3.80;;;12.90;99.90;;;;;;5107230;28;20040;-75
2022/05/14 05:29:03;;;;;;;22.85;5.25;;;13.00;99.90;;;;;;5089235;28;20166;-75
2022/05/14 05:31:31;;;;;;;20.92;4.07;;;13.10;99.90;;;;;;5107977;28;20039;-75
2022/05/14 05:33:57;;;;;;;21.88;5.43;;;13.10;99.90;;;;;;5106739;28;20052;-75
2022/05/14 05:36:23;;;;;;;20.70;4.47;;;13.10;99.90;;;;;;5089420;28;20047;-75
2022/05/14 05:38:51;;;;;;;19.83;4.18;;;13.10;99.90;;;;;;5107106;28;20086;-75
2022/05/14 05:41:18;;;;;;;22.75;4.45;;;13.10;99.90;;;;;;5106159;28;20083;-75
2022/05/14 05:43:44;;;;;;;22.33;5.82;;;13.20;99.90;;;;;;5072945;28;20127;-74
2022/05/14 05:46:11;;;;;;;33.65;5.47;;;13.20;99.90;;;;;;5088986;28;20054;-75
2022/05/14 05:48:37;;;;;;;21.60;4.97;;;13.10;99.90;;;;;;5106824;28;20569;-75
2022/05/14 05:51:04;;;;;;;16.00;3.95;;;13.10;99.90;;;;;;5106432;28;20075;-75
2022/05/14 05:58:59;;;;;;;22.27;4.15;;;13.40;99.90;;;;;;5105599;28;20083;-76
2022/05/14 06:01:25;;;;;;;26.70;4.47;;;13.60;99.90;;;;;;5106357;28;20126;-76
2022/05/14 06:03:51;;;;;;;21.50;4.45;;;13.70;99.90;;;;;;5106161;28;20451;-76
2022/05/14 06:06:18;;;;;;;19.90;3.80;;;13.80;99.90;;;;;;5105671;28;20059;-76
2022/05/14 06:08:44;;;;;;;15.60;3.97;;;14.10;99.90;;;;;;5106371;28;20058;-77
2022/05/14 06:11:10;;;;;;;22.90;4.30;;;14.10;99.90;;;;;;5105554;28;20043;-78
2022/05/14 06:13:40;;;;;;;15.32;3.47;;;14.30;99.90;;;;;;5106243;28;20043;-78
2022/05/14 06:16:06;;;;;;;22.27;4.43;;;14.40;99.90;;;;;;5105270;28;20060;-77
2022/05/14 06:18:32;;;;;;;19.30;4.13;;;14.60;99.90;;;;;;5105524;28;20122;-76
2022/05/14 06:20:57;;;;;;;16.13;4.15;;;14.70;99.90;;;;;;5105828;28;20055;-75
2022/05/14 06:23:23;;;;;;;17.13;3.85;;;14.80;99.90;;;;;;5088421;28;20044;-76
2022/05/14 06:25:49;;;;;;;21.13;3.92;;;14.80;99.90;;;;;;5071955;28;20043;-75
2022/05/14 06:28:14;;;;;;;15.45;3.17;;;14.80;99.90;;;;;;5105311;28;20514;-76
2022/05/14 06:30:43;;;;;;;15.73;3.72;;;14.80;99.90;;;;;;5105845;28;20054;-77
2022/05/14 06:33:10;;;;;;;17.83;3.85;;;14.80;99.90;;;;;;5104761;28;20100;-76
2022/05/14 06:35:37;;;;;;;18.50;3.95;;;14.80;99.90;;;;;;5105382;28;20047;-75
2022/05/14 06:38:04;;;;;;;19.38;4.47;;;14.90;99.90;;;;;;5105574;28;20370;-74
2022/05/14 06:40:30;;;;;;;15.15;3.22;;;14.90;99.90;;;;;;5088523;28;20047;-75
2022/05/14 06:42:57;;;;;;;20.58;3.65;;;14.90;99.90;;;;;;5106074;28;20063;-75
2022/05/14 06:45:23;;;;;;;20.35;3.85;;;15.00;99.90;;;;;;5105284;28;20398;-75
2022/05/14 06:47:49;;;;;;;14.38;2.95;;;15.00;99.90;;;;;;5105919;28;20112;-75
2022/05/14 06:50:15;;;;;;;11.80;3.10;;;15.00;99.90;;;;;;5106449;28;20433;-75
2022/05/14 06:52:43;;;;;;;19.20;3.17;;;15.10;99.90;;;;;;5105676;28;20086;-75
2022/05/14 06:55:12;;;;;;;15.63;3.03;;;15.20;99.90;;;;;;5106712;28;20051;-75
2022/05/14 06:57:38;;;;;;;15.02;3.00;;;15.30;99.90;;;;;;5106171;28;20039;-75
2022/05/14 07:00:05;;;;;;;16.63;3.22;;;15.40;99.90;;;;;;5105800;28;20130;-73
2022/05/14 07:02:32;;;;;;;16.77;3.42;;;15.50;99.90;;;;;;5105070;28;20096;-73
2022/05/14 07:07:43;;;;;;;10.52;2.75;;;15.60;99.90;;;;;;5106438;28;20058;-73
2022/05/14 07:10:09;;;;;;;11.85;2.90;;;15.70;99.90;;;;;;5087688;28;20040;-73
2022/05/14 07:12:34;;;;;;;12.93;3.00;;;16.40;99.90;;;;;;5087895;28;20065;-75
2022/05/14 07:15:02;;;;;;;20.75;3.55;;;15.90;99.90;;;;;;5104305;28;20048;-75
2022/05/14 07:17:28;;;;;;;18.35;3.55;;;16.00;99.90;;;;;;5087961;28;20058;-75
2022/05/14 07:19:54;;;;;;;11.73;2.75;;;16.10;99.90;;;;;;5104056;28;20055;-75
2022/05/14 07:22:20;;;;;;;9.55;2.67;;;16.10;99.90;;;;;;5070798;28;20043;-74
2022/05/14 07:24:47;;;;;;;18.55;2.55;;;16.20;99.90;;;;;;5105998;28;20051;-74
2022/05/14 07:27:13;;;;;;;16.08;3.38;;;16.30;99.90;;;;;;5104357;28;20055;-73
2022/05/14 07:29:41;;;;;;;13.68;3.08;;;16.30;99.90;;;;;;5104875;28;20051;-73
2022/05/14 07:32:15;;;;;;;9.60;2.60;;;16.40;99.90;;;;;;5104246;28;20048;-74
2022/05/14 07:34:42;;;;;;;10.65;2.30;;;16.50;99.90;;;;;;5104722;28;20051;-74
2022/05/14 07:37:21;;;;;;;9.48;2.55;;;16.60;99.90;;;;;;5106520;28;20079;-74
2022/05/14 07:39:54;;;;;;;11.35;3.05;;;16.80;99.90;;;;;;5108789;28;20044;-74
2022/05/14 07:42:43;;;;;;;14.30;3.00;;;16.80;99.90;;;;;;5109009;28;20103;-74
2022/05/14 07:45:12;;;;;;;12.55;2.40;;;16.90;99.90;;;;;;5091229;28;20043;-75
2022/05/14 07:47:38;;;;;;;13.68;3.15;;;17.10;99.90;;;;;;5109114;28;20403;-75
2022/05/14 07:50:06;;;;;;;14.07;2.33;;;17.10;99.90;;;;;;5108439;28;20117;-76
2022/05/14 07:52:32;;;;;;;16.42;3.28;;;17.20;99.90;;;;;;5109972;28;20090;-76
2022/05/14 07:54:58;;;;;;;10.00;2.20;;;17.30;99.90;;;;;;5108617;28;20078;-77
2022/05/14 07:57:24;;;;;;;11.57;2.80;;;17.40;99.90;;;;;;5109810;28;20071;-76
2022/05/14 07:59:49;;;;;;;11.82;2.13;;;17.50;99.90;;;;;;5110359;28;20086;-76
2022/05/14 08:02:31;;;;;;;14.13;2.97;;;17.60;99.90;;;;;;5108513;28;20044;-75
2022/05/14 08:05:01;;;;;;;11.20;2.88;;;17.70;99.90;;;;;;5109779;28;20479;-75
2022/05/14 08:07:27;;;;;;;16.75;2.65;;;17.80;99.90;;;;;;5110241;28;20041;-75
2022/05/14 08:09:53;;;;;;;13.20;2.60;;;17.90;99.90;;;;;;5108163;28;20704;-77
2022/05/14 08:12:18;;;;;;;8.40;2.03;;;18.00;99.90;;;;;;5091539;28;20050;-78
2022/05/14 08:14:44;;;;;;;12.25;3.10;;;18.20;99.90;;;;;;5089987;28;20130;-78
2022/05/14 08:17:11;;;;;;;7.40;2.55;;;18.30;99.90;;;;;;5107340;28;20161;-77
2022/05/14 08:19:40;;;;;;;13.15;2.60;;;18.50;99.90;;;;;;5106773;28;20062;-76
2022/05/14 08:24:51;;;;;;;15.68;2.85;;;18.80;99.90;;;;;;5108189;28;20065;-77
2022/05/14 08:27:17;;;;;;;8.57;2.78;;;19.00;99.90;;;;;;5108624;28;20399;-76
2022/05/14 08:29:45;;;;;;;20.52;3.20;;;19.30;99.90;;;;;;5090560;28;20372;-77
2022/05/14 08:32:11;;;;;;;13.65;2.60;;;19.60;99.90;;;;;;5106543;28;20052;-76
2022/05/14 08:34:37;;;;;;;12.07;2.40;;;19.60;99.90;;;;;;5107352;28;20044;-77
2022/05/14 08:37:03;;;;;;;14.52;3.00;;;19.50;99.90;;;;;;5108076;28;20047;-77
2022/05/14 08:39:29;;;;;;;11.02;2.35;;;19.50;99.90;;;;;;5108272;28;20123;-77
2022/05/14 08:41:57;;;;;;;14.63;2.75;;;19.40;99.90;;;;;;5107230;28;20103;-77
2022/05/14 08:44:33;;;;;;;11.93;2.80;;;19.20;99.90;;;;;;5107052;28;20043;-77
2022/05/14 08:47:06;;;;;;;14.60;2.75;;;19.00;99.90;;;;;;5089761;28;20445;-76
2022/05/14 08:49:34;;;;;;;13.68;4.40;;;18.80;99.90;;;;;;5105720;28;20100;-77
2022/05/14 08:52:01;;;;;;;14.02;3.17;;;19.00;99.90;;;;;;5089830;28;20054;-77
2022/05/14 08:54:30;;;;;;;16.77;2.78;;;19.30;99.90;;;;;;5106464;28;20127;-77
2022/05/14 08:56:59;;;;;;;15.50;2.70;;;19.30;99.90;;;;;;5107809;28;20093;-77
2022/05/14 08:59:34;;;;;;;12.48;2.53;;;19.10;99.90;;;;;;5108451;28;20047;-77
2022/05/14 09:02:05;;;;;;;14.85;3.22;;;18.90;99.90;;;;;;5105773;28;20047;-77
2022/05/14 09:04:31;;;;;;;9.88;2.40;;;18.60;99.90;;;;;;5107832;28;20483;-76
2022/05/14 09:06:57;;;;;;;12.77;3.38;;;18.60;99.90;;;;;;5105602;28;20067;-76
2022/05/14 09:09:22;;;;;;;13.00;2.75;;;18.80;99.90;;;;;;5107781;28;20050;-76
2022/05/14 09:11:59;;;;;;;13.70;2.88;;;19.10;99.90;;;;;;5107484;28;20143;-76
2022/05/14 09:14:29;;;;;;;12.48;2.95;;;19.40;99.90;;;;;;5106184;28;20050;-77
2022/05/14 09:16:59;;;;;;;13.70;2.47;;;20.60;99.80;;;;;;5106197;28;20055;-75
2022/05/14 09:19:36;;;;;;;16.60;4.18;;;19.70;99.10;;;;;;5105378;28;20050;-75
2022/05/14 09:22:27;;;;;;;12.82;2.78;;;19.90;98.90;;;;;;5107915;28;20531;-76
2022/05/14 09:24:54;;;;;;;10.77;3.05;;;20.10;98.30;;;;;;5107735;28;20054;-76
2022/05/14 09:27:33;;;;;;;12.63;3.20;;;20.30;97.00;;;;;;5106915;28;20356;-76
2022/05/14 09:30:04;;;;;;;10.63;2.72;;;20.10;94.60;;;;;;5107740;28;20090;-76
2022/05/14 09:32:33;;;;;;;13.60;2.92;;;20.10;98.80;;;;;;5105962;28;20147;-76
2022/05/14 09:35:06;;;;;;;21.63;3.65;;;20.20;98.50;;;;;;5088697;28;20055;-76
2022/05/14 09:37:32;;;;;;;14.10;2.85;;;20.10;96.30;;;;;;5105969;28;20498;-77
2022/05/14 09:40:00;;;;;;;11.18;2.65;;;19.90;98.40;;;;;;5105600;28;20043;-76
2022/05/14 09:42:39;;;;;;;15.20;3.20;;;19.80;98.00;;;;;;5107261;28;20043;-76
2022/05/14 09:45:19;;;;;;;11.52;2.90;;;19.80;98.30;;;;;;5105253;28;20055;-76
2022/05/14 09:47:44;;;;;;;11.93;2.47;;;19.90;98.00;;;;;;5107194;28;20047;-76
2022/05/14 09:50:18;;;;;;;12.00;3.05;;;19.80;98.80;;;;;;5106797;28;20506;-76
2022/05/14 09:52:55;;;;;;;14.98;2.95;;;20.00;97.30;;;;;;5106781;28;20218;-76
2022/05/14 09:55:22;;;;;;;11.13;3.00;;;19.90;96.60;;;;;;5106821;28;20048;-76
2022/05/14 09:57:55;;;;;;;15.38;3.25;;;19.60;98.10;;;;;;5105109;28;20191;-76
2022/05/14 10:00:29;;;;;;;10.95;3.03;;;19.50;98.50;;;;;;5105367;28;20039;-76
2022/05/14 10:03:06;;;;;;;13.27;2.95;;;19.50;98.90;;;;;;5106773;27;20445;-76
2022/05/14 10:05:38;;;;;;;16.90;3.85;;;19.70;97.70;;;;;;5106121;28;20054;-76
2022/05/14 10:08:07;;;;;;;11.35;3.03;;;19.80;98.50;;;;;;5106899;28;20077;-76
2022/05/14 10:10:56;;;;;;;12.00;3.10;;;20.10;97.90;;;;;;5104504;28;20043;-76
2022/05/14 10:13:36;;;;;;;11.70;3.22;;;20.40;94.70;;;;;;5105064;28;20043;-76
2022/05/14 10:16:19;;;;;;;13.60;3.08;;;20.60;94.60;;;;;;5088515;28;20044;-77
2022/05/14 10:19:22;;;;;;;13.73;3.30;;;20.70;93.40;;;;;;5104056;28;20066;-76
2022/05/14 10:21:48;;;;;;;;;;;21.00;87.40;;;;;;5105490;28;20047;-76
2022/05/14 10:27:23;;;;;;;13.02;3.25;;;21.20;94.00;;;;;;5105244;28;20559;-76
2022/05/14 10:30:21;;;;;;;15.45;3.35;;;21.30;91.90;;;;;;5106588;28;20107;-76
2022/05/14 10:32:52;;;;;;;15.43;2.78;;;21.50;94.00;;;;;;5106570;28;20765;-76
2022/05/14 10:35:40;;;;;;;13.30;3.33;;;21.60;90.80;;;;;;5087454;28;20050;-75
2022/05/14 10:38:17;;;;;;;14.85;3.60;;;21.70;92.20;;;;;;5106516;28;20092;-75
2022/05/14 10:40:46;;;;;;;15.63;3.13;;;22.00;82.90;;;;;;5105397;28;20132;-76
2022/05/14 10:43:46;;;;;;;15.55;2.97;;;22.00;89.70;;;;;;5105794;28;20028;-75
2022/05/14 10:46:18;;;;;;;13.10;2.65;;;22.10;88.00;;;;;;5106509;28;20048;-75
2022/05/14 10:48:56;;;;;;;10.73;2.88;;;22.30;88.60;;;;;;5105099;28;20051;-75
2022/05/14 10:51:31;;;;;;;17.48;3.25;;;22.40;76.40;;;;;;5105815;28;20368;-75
2022/05/14 10:54:00;;;;;;;13.13;3.38;;;22.30;71.00;;;;;;5104245;28;20067;-75
2022/05/14 10:56:35;;;;;;;15.85;3.25;;;22.20;78.60;;;;;;5104176;28;20073;-75
2022/05/14 10:59:10;;;;;;;11.40;3.13;;;22.10;72.80;;;;;;5106034;28;20044;-75
2022/05/14 11:01:42;;;;;;;12.82;3.40;;;22.10;69.20;;;;;;5104839;28;20048;-75
2022/05/14 11:04:33;;;;;;;15.80;3.22;;;22.20;78.50;;;;;;5105310;28;20046;-75
2022/05/14 11:07:08;;;;;;;10.98;3.13;;;22.40;72.20;;;;;;5086374;28;20059;-76
2022/05/14 11:09:34;;;;;;;8.18;2.38;;;22.70;72.40;;;;;;5104856;28;20047;-76
2022/05/14 11:12:05;;;;;;;10.93;2.78;;;22.70;75.00;;;;;;5105572;28;20043;-76
2022/05/14 11:14:47;;;;;;;10.98;2.88;;;22.90;77.30;;;;;;5103535;28;20445;-76
2022/05/14 11:17:39;;;;;;;14.85;3.30;;;22.60;69.00;;;;;;5118564;28;20552;-76
2022/05/14 11:20:04;;;;;;;13.88;3.72;;;23.10;60.60;;;;;;5121183;28;20415;-76
2022/05/14 11:22:42;;;;;;;12.90;3.03;;;23.10;70.60;;;;;;5125125;28;20039;-76
2022/05/14 11:25:21;;;;;;;16.48;3.08;;;23.10;59.00;;;;;;5107582;28;20039;-75
2022/05/14 11:28:08;;;;;;;10.45;2.90;;;22.90;64.60;;;;;;5089848;28;20043;-76
2022/05/14 11:30:39;;;;;;;16.73;3.53;;;22.60;62.90;;;;;;5125461;28;20043;-75
2022/05/14 11:33:29;;;;;;;13.18;3.15;;;22.80;67.30;;;;;;5107588;28;20050;-76
2022/05/14 11:35:56;;;;;;;15.25;2.95;;;22.10;65.00;;;;;;5106764;28;20054;-75
2022/05/14 11:38:25;;;;;;;18.77;3.33;;;22.10;70.90;;;;;;5107175;28;20517;-76
2022/05/14 11:40:58;;;;;;;9.27;2.97;;;22.30;67.10;;;;;;5107456;28;20405;-76
2022/05/14 11:43:49;;;;;;;11.65;3.33;;;22.30;66.30;;;;;;5106757;28;20514;-75
2022/05/14 11:46:53;;;;;;;11.00;2.92;;;22.30;67.50;;;;;;5108036;28;20048;-75
2022/05/14 11:49:35;;;;;;;14.57;3.55;;;22.20;63.10;;;;;;5022017;28;20057;-75
2022/05/14 11:52:16;;;;;;;12.88;3.53;;;22.00;65.70;;;;;;5022115;28;20046;-76
2022/05/14 11:54:50;;;;;;;14.88;3.00;;;21.80;66.10;;;;;;5075041;28;20506;-76
2022/05/14 11:57:21;;;;;;;11.90;2.97;;;21.50;67.30;;;;;;5124729;28;20497;-76
2022/05/14 11:59:59;;;;;;;14.40;3.08;;;21.60;68.60;;;;;;5125877;28;20032;-75
2022/05/14 12:02:39;;;;;;;15.82;2.72;;;21.70;69.40;;;;;;5125630;28;20089;-76
2022/05/14 12:05:15;;;;;;;12.02;3.17;;;21.80;68.90;;;;;;5125128;28;20057;-75
2022/05/14 12:07:52;;;;;;;15.43;4.07;;;21.80;69.30;;;;;;5107881;28;20054;-75
2022/05/14 12:10:27;;;;;;;14.93;2.95;;;22.10;69.30;;;;;;5125077;28;20126;-75
2022/05/14 12:13:22;;;;;;;12.52;3.17;;;22.40;66.60;;;;;;5125486;28;20151;-75
2022/05/14 12:15:54;;;;;;;16.70;4.18;;;22.60;62.40;;;;;;5065418;28;20460;-76
2022/05/14 12:18:21;;;;;;;10.30;2.78;;;22.40;66.10;;;;;;5089225;28;20103;-76
2022/05/14 12:20:55;;;;;;;17.70;3.38;;;22.60;65.60;;;;;;5126240;28;20041;-75
2022/05/14 12:23:36;;;;;;;17.10;3.42;;;22.50;62.30;;;;;;5126051;27;20081;-76
2022/05/14 12:26:05;;;;;;;12.02;3.42;;;22.20;61.20;;;;;;5128993;27;20041;-75
2022/05/14 12:28:35;;;;;;;16.33;3.55;;;22.00;65.20;;;;;;5129802;27;20379;-75
2022/05/14 12:34:01;;;;;;;14.90;3.45;;;22.10;65.10;;;;;;5129123;27;20050;-76
2022/05/14 12:36:32;;;;;;;11.32;3.05;;;22.20;63.20;;;;;;5110687;27;20053;-76
2022/05/14 12:39:02;;;;;;;14.82;4.13;;;22.10;64.60;;;;;;5110784;27;20047;-75
2022/05/14 12:41:39;;;;;;;15.10;3.10;;;21.80;64.90;;;;;;5111285;27;20042;-75
2022/05/14 12:44:14;;;;;;;16.30;3.80;;;22.10;64.70;;;;;;5092511;27;20047;-75
2022/05/14 12:46:54;;;;;;;14.07;2.95;;;22.00;65.60;;;;;;5110401;27;20058;-76
2022/05/14 12:49:43;;;;;;;17.77;4.32;;;21.90;66.10;;;;;;5128984;27;20039;-76
2022/05/14 12:52:13;;;;;;;15.00;3.00;;;22.00;66.50;;;;;;5112902;27;20055;-76
2022/05/14 12:54:55;;;;;;;10.07;3.17;;;22.00;68.10;;;;;;5110842;27;20036;-76
2022/05/14 12:57:22;;;;;;;16.63;4.10;;;21.90;67.90;;;;;;5128221;27;20047;-76
2022/05/14 12:59:48;;;;;;;16.55;3.63;;;21.80;69.40;;;;;;5109955;27;20501;-75
2022/05/14 13:02:41;;;;;;;13.98;2.92;;;22.10;70.70;;;;;;5109597;27;20044;-75
2022/05/14 13:05:36;;;;;;;20.50;4.53;;;22.30;66.90;;;;;;5109467;27;20051;-75
2022/05/14 13:08:17;;;;;;;15.70;3.83;;;22.50;66.20;;;;;;5107353;27;20070;-74
2022/05/14 13:10:50;;;;;;;14.82;4.32;;;22.50;65.80;;;;;;5076863;27;20040;-74
2022/05/14 13:13:17;;;;;;;16.65;4.97;;;22.40;67.00;;;;;;5127886;27;20078;-74
2022/05/14 13:15:53;;;;;;;17.45;4.35;;;22.30;66.90;;;;;;5093289;27;20039;-75
2022/05/14 13:18:31;;;;;;;13.25;3.28;;;22.50;67.00;;;;;;5108814;27;20047;-75